메인 페이지
METAR-TAF:

METAR-TAF

공항 :

리스본 포르텔라 국제공항

리스본, 포르투갈

위도: 38-46N, 경도: 009-08W, 고도: 114m

현재 날씨관측

예보는 45분 전, 08:00시(UTC)에 발표되었습니다.
북서5kt풍과 풍을 오가는
온도 20°C
습도 73%
기압 1011 hPa
시정 10km 이상
고도 1500ft 상공 구름 조금

METAR: LPPT 040800Z 31005KT 280V360 9999 FEW015 20/15 Q1011

시각: 09:45 (08:45 UTC)

예보

예보는 3 시간 45분 전, 05:00시(UTC)에 발표되었습니다.
예보 대상 시간: 04일 06시부터 05일 12시까지 (UTC)
여러 방향의 바람 2kt
시정 10km 이상
고도 1200ft 상공 구름 보통
고도 3000ft 상공 구름 많음
확률 40% :
일시적
04일 06시부터 04일 14시까지 (UTC)
시정: 6000m
고도 1500ft 상공 구름 많음
고도 2000ft 상공 구름 조금, 타워링 적운.
약한비
전환 중
04일 09시부터 04일 11시까지 (UTC)
7kt
전환 중
04일 14시부터 04일 16시까지 (UTC)
북서12kt
시정 10km 이상
1500m 미만 상공 구름 및 적란운 없음
전환 중
05일 00시부터 05일 03시까지 (UTC)
북북서5kt
시정 10km 이상
고도 1200ft 상공 구름 조금

TAF: LPPT 040500Z 0406/0512 VRB02KT 9999 SCT012 BKN030 PROB40 TEMPO 0406/0414 6000 -RA BKN015 FEW020TCU BECMG 0409/0411 28007KT BECMG 0414/0416 32012KT CAVOK BECMG 0500/0503 33005KT 9999 FEW012

4,000개 이상의 공항 관측 자료 및 예보 (METAR 및 TAF 보고).

지도상에서 검색 가능한 기상관측소가 노란 점과 빨간 점으로 표시되어 있습니다.

기상관측소 명을 보려면 표시 위로 마우스를 이동하세요.

날씨 관측과 예보를 보려면 클릭하세요.

지도 변경 : 확대하려면 엑스 표시가 있는 녹색 버튼, 축소하려면 빼기 표시가 있는 녹색 버튼, 다음 페이지의 지도를 보려면 녹색 화살표를 클릭하세요.


METAR-TAF: